createdAt,value
2023-05-22T00:02:42.908Z,15.30
2023-05-22T00:07:46.100Z,16.75
2023-05-22T00:12:47.680Z,15.77
2023-05-22T00:17:49.927Z,15.88
2023-05-22T00:22:51.517Z,15.93
2023-05-22T00:27:52.999Z,15.25
2023-05-22T00:32:54.504Z,16.30
2023-05-22T00:37:56.035Z,18.63
2023-05-22T00:42:57.606Z,16.23
2023-05-22T00:47:59.060Z,18.05
2023-05-22T00:53:01.125Z,18.50
2023-05-22T00:58:08.965Z,18.55
2023-05-22T01:03:10.896Z,19.65
2023-05-22T01:08:12.504Z,18.35
2023-05-22T01:13:36.541Z,17.00
2023-05-22T01:18:56.039Z,16.90
2023-05-22T01:24:26.596Z,18.63
2023-05-22T01:30:02.888Z,18.00
2023-05-22T01:35:11.702Z,17.00
2023-05-22T01:40:13.769Z,20.77
2023-05-22T01:45:15.239Z,19.52
2023-05-22T01:50:16.982Z,19.50
2023-05-22T01:55:40.439Z,19.33
2023-05-22T02:00:45.958Z,19.88
2023-05-22T02:05:51.806Z,18.75
2023-05-22T02:10:56.161Z,18.08
2023-05-22T02:15:58.715Z,18.67
2023-05-22T02:21:00.854Z,17.45
2023-05-22T02:26:02.307Z,17.58
2023-05-22T02:31:04.333Z,19.90
2023-05-22T02:36:06.196Z,17.30
2023-05-22T02:41:08.324Z,18.77
2023-05-22T02:46:09.846Z,18.10
2023-05-22T02:51:11.867Z,17.63
2023-05-22T02:56:13.331Z,17.95
2023-05-22T03:01:15.579Z,18.15
2023-05-22T03:06:17.436Z,17.17
2023-05-22T03:11:18.949Z,18.08
2023-05-22T03:16:20.579Z,17.60
2023-05-22T03:21:22.083Z,15.13
2023-05-22T03:26:23.519Z,16.23
2023-05-22T03:31:26.212Z,16.98
2023-05-22T03:36:27.832Z,17.90
2023-05-22T03:41:29.374Z,17.98
2023-05-22T03:46:30.946Z,16.95
2023-05-22T03:51:32.452Z,16.83
2023-05-22T03:56:34.744Z,15.55
2023-05-22T04:01:39.400Z,17.90
2023-05-22T04:06:43.929Z,18.95
2023-05-22T04:11:46.513Z,24.38
2023-05-22T04:16:50.311Z,26.70
2023-05-22T04:21:52.497Z,23.55
2023-05-22T04:26:54.064Z,27.30
2023-05-22T04:31:55.623Z,26.70
2023-05-22T04:36:57.132Z,25.55
2023-05-22T04:41:58.543Z,25.75
2023-05-22T04:47:05.991Z,24.80
2023-05-22T04:52:11.506Z,24.70
2023-05-22T04:57:13.064Z,22.27
2023-05-22T05:02:14.850Z,25.17
2023-05-22T05:07:17.699Z,23.10
2023-05-22T05:12:19.243Z,23.25
2023-05-22T05:17:22.573Z,27.85
2023-05-22T05:22:24.100Z,25.42
2023-05-22T05:27:26.153Z,17.77
2023-05-22T05:32:27.926Z,19.55
2023-05-22T05:37:29.643Z,20.63
2023-05-22T05:42:31.147Z,21.45
2023-05-22T05:47:32.927Z,18.23
2023-05-22T07:19:12.273Z,16.63
2023-05-22T07:24:18.630Z,16.52
2023-05-22T07:29:21.874Z,16.00
2023-05-22T07:34:29.901Z,14.18
2023-05-22T07:39:31.382Z,14.88
2023-05-22T07:44:33.670Z,13.00
2023-05-22T07:49:35.149Z,11.32
2023-05-22T07:54:36.901Z,12.77
2023-05-22T07:59:38.414Z,11.15
2023-05-22T08:04:40.484Z,10.48
2023-05-22T08:09:46.034Z,11.55
2023-05-22T08:14:47.566Z,10.57
2023-05-22T08:19:49.128Z,11.77
2023-05-22T08:24:51.005Z,9.73
2023-05-22T08:29:52.535Z,10.48
2023-05-22T08:34:53.977Z,9.77
2023-05-22T08:39:55.525Z,11.07
2023-05-22T08:44:57.913Z,10.35
2023-05-22T08:50:00.209Z,12.60
2023-05-22T08:55:05.114Z,10.10
2023-05-22T09:00:08.561Z,10.80
2023-05-22T09:05:10.221Z,11.30
2023-05-22T09:10:11.818Z,10.77
2023-05-22T09:15:13.899Z,11.55
2023-05-22T09:20:15.765Z,11.13
2023-05-22T09:25:21.773Z,12.95
2023-05-22T09:30:23.435Z,12.82
2023-05-22T09:35:27.767Z,12.70
2023-05-22T09:40:29.428Z,13.18
2023-05-22T09:45:34.688Z,13.35
2023-05-22T09:50:37.023Z,13.43
2023-05-22T09:55:39.520Z,13.27
2023-05-22T10:00:41.916Z,10.13
2023-05-22T10:05:48.745Z,12.75
2023-05-22T10:10:53.131Z,11.65
2023-05-22T10:15:55.381Z,11.85
2023-05-22T10:20:58.002Z,10.73
2023-05-22T10:25:59.550Z,11.40
2023-05-22T10:31:09.304Z,12.27
2023-05-22T10:36:31.566Z,16.77
2023-05-22T10:41:33.683Z,14.50
2023-05-22T10:46:36.667Z,12.80
2023-05-22T10:51:38.492Z,14.87
2023-05-22T10:56:40.528Z,13.63
2023-05-22T11:01:42.054Z,15.27
2023-05-22T11:06:47.315Z,17.02
2023-05-22T11:12:17.818Z,15.15
2023-05-22T11:17:29.330Z,15.55
2023-05-22T11:22:39.017Z,15.50
2023-05-22T11:27:41.661Z,15.63
2023-05-22T11:32:45.302Z,17.17
2023-05-22T11:42:49.202Z,15.07
2023-05-22T11:47:50.970Z,13.38
2023-05-22T11:52:53.980Z,12.70
2023-05-22T11:57:56.526Z,11.80
2023-05-22T12:02:58.253Z,10.38
2023-05-22T12:08:00.075Z,13.65
2023-05-22T12:13:01.615Z,13.32
2023-05-22T12:18:03.114Z,11.68
2023-05-22T12:23:04.734Z,10.15
2023-05-22T12:28:07.445Z,10.90
2023-05-22T12:33:15.471Z,11.80
2023-05-22T12:38:16.967Z,10.07
2023-05-22T12:43:18.710Z,12.10
2023-05-22T12:48:20.392Z,10.95
2023-05-22T12:53:21.870Z,12.60
2023-05-22T12:58:23.425Z,11.27
2023-05-22T13:03:25.043Z,10.50
2023-05-22T13:08:26.504Z,10.20
2023-05-22T13:13:28.036Z,10.35
2023-05-22T13:18:29.520Z,12.70
2023-05-22T13:23:31.209Z,12.00
2023-05-22T13:28:32.641Z,13.00
2023-05-22T13:33:34.325Z,11.82
2023-05-22T13:38:35.829Z,11.90
2023-05-22T13:43:37.412Z,9.20
2023-05-22T13:48:38.973Z,9.20
2023-05-22T13:53:40.421Z,8.15
2023-05-22T13:58:41.848Z,8.82
2023-05-22T14:03:44.701Z,11.40
2023-05-22T14:08:46.217Z,11.77
2023-05-22T14:13:48.516Z,15.40
2023-05-22T14:18:50.129Z,13.20
2023-05-22T14:23:51.649Z,14.50
2023-05-22T14:28:53.911Z,11.95
2023-05-22T14:33:55.693Z,14.30
2023-05-22T14:38:57.153Z,15.88
2023-05-22T14:43:58.828Z,12.90
2023-05-22T14:49:00.388Z,15.02
2023-05-22T14:54:01.863Z,13.05
2023-05-22T14:59:03.350Z,12.77
2023-05-22T15:04:05.400Z,12.93
2023-05-22T15:09:07.097Z,11.25
2023-05-22T15:14:08.566Z,11.60
2023-05-22T15:19:10.115Z,9.73
2023-05-22T15:24:11.895Z,8.23
2023-05-22T15:29:13.447Z,8.52
2023-05-22T15:34:14.973Z,8.30
2023-05-22T15:39:16.786Z,8.15
2023-05-22T15:44:19.396Z,6.60
2023-05-22T15:49:20.868Z,4.93
2023-05-22T15:54:22.408Z,5.57
2023-05-22T15:59:23.857Z,5.85
2023-05-22T16:04:25.436Z,5.82
2023-05-22T16:09:26.929Z,5.22
2023-05-22T16:14:28.405Z,4.15
2023-05-22T16:19:30.345Z,5.22
2023-05-22T16:24:32.017Z,4.72
2023-05-22T16:29:33.653Z,3.78
2023-05-22T16:34:36.600Z,2.85
2023-05-22T16:39:39.854Z,2.30
2023-05-22T16:44:41.358Z,2.40
2023-05-22T16:49:42.925Z,2.92
2023-05-22T16:54:44.379Z,3.10
2023-05-22T16:59:46.028Z,2.33
2023-05-22T17:04:47.792Z,2.60
2023-05-22T17:09:49.308Z,2.80
2023-05-22T17:14:51.138Z,2.50
2023-05-22T17:19:53.390Z,2.67
2023-05-22T17:24:54.853Z,2.78
2023-05-22T17:29:56.306Z,2.53
2023-05-22T17:34:57.753Z,2.97
2023-05-22T17:39:59.316Z,2.90
2023-05-22T17:45:00.905Z,2.83
2023-05-22T17:50:02.393Z,3.20
2023-05-22T17:55:04.237Z,3.30
2023-05-22T18:00:09.730Z,3.00
2023-05-22T18:05:11.264Z,2.63
2023-05-22T18:10:13.118Z,3.30
2023-05-22T18:15:14.582Z,3.75
2023-05-22T18:20:16.903Z,3.35
2023-05-22T18:25:18.497Z,3.60
2023-05-22T18:30:20.051Z,3.80
2023-05-22T18:35:21.866Z,3.60
2023-05-22T18:40:23.321Z,3.65
2023-05-22T18:45:24.778Z,3.55
2023-05-22T18:50:26.504Z,3.50
2023-05-22T18:55:28.286Z,3.30
2023-05-22T19:00:30.741Z,3.95
2023-05-22T19:05:32.311Z,4.32
2023-05-22T19:10:33.928Z,4.05
2023-05-22T19:15:35.877Z,4.20
2023-05-22T19:20:37.657Z,4.20
2023-05-22T19:25:39.349Z,4.22
2023-05-22T19:30:41.249Z,3.65
2023-05-22T19:35:43.715Z,4.10
2023-05-22T19:40:46.788Z,4.05
2023-05-22T19:45:48.668Z,4.47
2023-05-22T19:50:50.297Z,4.75
2023-05-22T19:55:51.806Z,4.82
2023-05-22T20:00:53.392Z,5.03
2023-05-22T20:05:54.920Z,4.90
2023-05-22T20:10:56.442Z,5.60
2023-05-22T20:15:58.278Z,5.32
2023-05-22T20:20:59.945Z,5.95
2023-05-22T20:26:01.450Z,5.40
2023-05-22T20:31:04.194Z,6.68
2023-05-22T20:36:06.479Z,6.32
2023-05-22T20:41:09.629Z,6.03
2023-05-22T20:46:11.701Z,6.75
2023-05-22T20:51:15.782Z,6.93
2023-05-22T20:56:17.422Z,8.93
2023-05-22T21:01:18.990Z,9.55
2023-05-22T21:06:20.512Z,8.43
2023-05-22T21:11:22.136Z,9.15
2023-05-22T21:16:26.307Z,11.27
2023-05-22T21:21:28.123Z,9.23
2023-05-22T21:26:29.643Z,10.25
2023-05-22T21:31:35.479Z,6.78
2023-05-22T21:36:37.647Z,5.80
2023-05-22T21:41:39.097Z,4.03
2023-05-22T21:46:40.683Z,3.50
2023-05-22T21:51:42.258Z,3.58
2023-05-22T21:56:43.760Z,3.50
2023-05-22T22:01:45.552Z,4.05
2023-05-22T22:06:47.193Z,3.88
2023-05-22T22:11:48.793Z,4.07
2023-05-22T22:16:54.195Z,3.83
2023-05-22T22:21:55.833Z,4.07
2023-05-22T22:26:57.320Z,5.00
2023-05-22T22:31:58.898Z,4.60
2023-05-22T22:37:00.682Z,4.57
2023-05-22T22:42:05.056Z,4.28
2023-05-22T22:47:07.530Z,4.63
2023-05-22T22:52:09.022Z,4.97
2023-05-22T22:57:10.918Z,4.63
2023-05-22T23:02:12.334Z,5.70
2023-05-22T23:07:13.851Z,6.18
2023-05-22T23:12:15.386Z,6.53
2023-05-22T23:17:16.886Z,6.95
2023-05-22T23:22:18.939Z,7.28
2023-05-22T23:27:20.452Z,6.07
2023-05-22T23:32:22.389Z,6.70
2023-05-22T23:37:23.856Z,6.65
2023-05-22T23:42:25.778Z,7.05
2023-05-22T23:47:27.311Z,8.18
2023-05-22T23:52:28.850Z,8.25
2023-05-22T23:57:30.612Z,6.95
